BAW813C EKCH-EGLL
Flight info
| Callsign | BAW813C |
|---|---|
| Flight time | 1h 35m |
| Altitude | 38000 |
| Route | LANGO DCT RAXLU DCT JUIST DCT ABNED L980 LOGAN |
| Aircraft | A319/M-SDE3FGIJ1KRWXY/LB1 |
Departure
| Time | 2026-05-08 05:57 |
|---|---|
| Airport | Copenhagen Kastrup Airport (EKCH) |
Arrival
| Time | 2026-05-08 07:32 |
|---|---|
| Airport | London Heathrow Airport (EGLL) |
| Time | Latitude | Longitude | Altitude | Speed | Heading |
|---|---|---|---|---|---|
| 2026-05-08 05:16 | 55.62697 | 12.65079 | 17 ft | 0 kts | 290° |
| 2026-05-08 05:48 | 55.62689 | 12.65118 | 17 ft | 4 kts | 291° |
| 2026-05-08 05:48 | 55.62678 | 12.65161 | 17 ft | 4 kts | 304° |
| 2026-05-08 05:48 | 55.62660 | 12.65190 | 17 ft | 3 kts | 351° |
| 2026-05-08 05:48 | 55.62637 | 12.65194 | 17 ft | 4 kts | 358° |
| 2026-05-08 05:49 | 55.62610 | 12.65195 | 17 ft | 4 kts | 359° |
| 2026-05-08 05:49 | 55.62599 | 12.65195 | 17 ft | 0 kts | 359° |
| 2026-05-08 05:52 | 55.62612 | 12.65194 | 19 ft | 4 kts | 359° |
| 2026-05-08 05:52 | 55.62650 | 12.65229 | 17 ft | 8 kts | 56° |
| 2026-05-08 05:52 | 55.62625 | 12.65319 | 18 ft | 10 kts | 167° |
| 2026-05-08 05:53 | 55.62542 | 12.65324 | 17 ft | 13 kts | 179° |
| 2026-05-08 05:53 | 55.62440 | 12.65328 | 17 ft | 16 kts | 179° |
| 2026-05-08 05:53 | 55.62338 | 12.65332 | 17 ft | 9 kts | 179° |
| 2026-05-08 05:53 | 55.62292 | 12.65269 | 19 ft | 11 kts | 262° |
| 2026-05-08 05:54 | 55.62234 | 12.65196 | 17 ft | 12 kts | 189° |
| 2026-05-08 05:54 | 55.62152 | 12.65116 | 19 ft | 15 kts | 213° |
| 2026-05-08 05:54 | 55.62060 | 12.65010 | 19 ft | 17 kts | 213° |
| 2026-05-08 05:54 | 55.61952 | 12.64886 | 17 ft | 20 kts | 213° |
| 2026-05-08 05:55 | 55.61850 | 12.64781 | 17 ft | 14 kts | 217° |
| 2026-05-08 05:55 | 55.61763 | 12.64669 | 17 ft | 17 kts | 213° |
| 2026-05-08 05:55 | 55.61678 | 12.64584 | 17 ft | 13 kts | 188° |
| 2026-05-08 05:55 | 55.61580 | 12.64612 | 20 ft | 15 kts | 169° |
| 2026-05-08 05:56 | 55.61507 | 12.64636 | 17 ft | 17 kts | 169° |
| 2026-05-08 05:56 | 55.61380 | 12.64678 | 18 ft | 20 kts | 169° |
| 2026-05-08 05:56 | 55.61278 | 12.64711 | 18 ft | 10 kts | 169° |
| 2026-05-08 05:56 | 55.61244 | 12.64749 | 19 ft | 6 kts | 69° |
| 2026-05-08 05:57 | 55.61298 | 12.64835 | 20 ft | 22 kts | 41° |
| 2026-05-08 05:57 | 55.61646 | 12.65372 | 16 ft | 107 kts | 41° |
| 2026-05-08 05:57 | 55.62361 | 12.66494 | 171 ft | 152 kts | 44° |
| 2026-05-08 05:57 | 55.63119 | 12.67698 | 948 ft | 145 kts | 44° |
| 2026-05-08 05:58 | 55.63877 | 12.68865 | 1583 ft | 147 kts | 43° |
| 2026-05-08 05:58 | 55.64710 | 12.70144 | 1868 ft | 169 kts | 43° |
| 2026-05-08 05:58 | 55.65653 | 12.71598 | 2185 ft | 190 kts | 43° |
| 2026-05-08 05:58 | 55.66719 | 12.73207 | 2484 ft | 216 kts | 42° |
| 2026-05-08 05:59 | 55.67944 | 12.75015 | 2861 ft | 243 kts | 41° |
| 2026-05-08 05:59 | 55.69107 | 12.77259 | 3649 ft | 253 kts | 59° |
| 2026-05-08 05:59 | 55.69718 | 12.80187 | 4666 ft | 256 kts | 81° |
| 2026-05-08 05:59 | 55.69658 | 12.83338 | 5685 ft | 258 kts | 103° |
| 2026-05-08 06:00 | 55.68903 | 12.86226 | 6668 ft | 262 kts | 126° |
| 2026-05-08 06:00 | 55.67541 | 12.88382 | 7613 ft | 267 kts | 149° |
| 2026-05-08 06:00 | 55.65804 | 12.89636 | 8561 ft | 272 kts | 159° |
| 2026-05-08 06:00 | 55.64000 | 12.90711 | 9503 ft | 276 kts | 164° |
| 2026-05-08 06:01 | 55.62072 | 12.91096 | 10384 ft | 283 kts | 179° |
| 2026-05-08 06:01 | 55.60048 | 12.90533 | 10716 ft | 310 kts | 196° |
| 2026-05-08 06:01 | 55.58057 | 12.88754 | 11026 ft | 333 kts | 215° |
| 2026-05-08 06:01 | 55.56350 | 12.85892 | 11681 ft | 342 kts | 225° |
| 2026-05-08 06:02 | 55.54696 | 12.82851 | 12452 ft | 345 kts | 225° |
| 2026-05-08 06:02 | 55.53164 | 12.79558 | 13238 ft | 350 kts | 236° |
| 2026-05-08 06:02 | 55.52036 | 12.75739 | 13997 ft | 354 kts | 248° |
| 2026-05-08 06:02 | 55.51388 | 12.71522 | 14665 ft | 359 kts | 261° |
| 2026-05-08 06:03 | 55.51186 | 12.67112 | 15325 ft | 362 kts | 266° |
| 2026-05-08 06:03 | 55.51032 | 12.62651 | 16007 ft | 365 kts | 265° |
| 2026-05-08 06:03 | 55.50869 | 12.58167 | 16686 ft | 368 kts | 265° |
| 2026-05-08 06:03 | 55.50700 | 12.53647 | 17362 ft | 371 kts | 265° |
| 2026-05-08 06:04 | 55.50526 | 12.49100 | 18060 ft | 373 kts | 265° |
| 2026-05-08 06:04 | 55.50349 | 12.44573 | 18703 ft | 376 kts | 265° |
| 2026-05-08 06:04 | 55.50164 | 12.39960 | 19273 ft | 379 kts | 265° |
| 2026-05-08 06:04 | 55.49978 | 12.35309 | 19852 ft | 382 kts | 265° |
| 2026-05-08 06:05 | 55.49773 | 12.30551 | 20430 ft | 385 kts | 263° |
| 2026-05-08 06:05 | 55.49233 | 12.25976 | 21002 ft | 388 kts | 252° |
| 2026-05-08 06:05 | 55.48216 | 12.21567 | 21564 ft | 390 kts | 242° |
| 2026-05-08 06:05 | 55.46752 | 12.17526 | 22103 ft | 393 kts | 232° |
| 2026-05-08 06:06 | 55.45097 | 12.13669 | 22631 ft | 396 kts | 232° |
| 2026-05-08 06:06 | 55.43427 | 12.09781 | 23143 ft | 400 kts | 232° |
| 2026-05-08 06:06 | 55.41738 | 12.05854 | 23647 ft | 403 kts | 232° |
| 2026-05-08 06:06 | 55.40040 | 12.01899 | 24089 ft | 406 kts | 232° |
| 2026-05-08 06:07 | 55.38331 | 11.97914 | 24499 ft | 410 kts | 232° |
| 2026-05-08 06:07 | 55.36606 | 11.93902 | 24903 ft | 413 kts | 232° |
| 2026-05-08 06:07 | 55.34866 | 11.89865 | 25301 ft | 415 kts | 232° |
| 2026-05-08 06:07 | 55.33113 | 11.85810 | 25704 ft | 418 kts | 232° |
| 2026-05-08 06:08 | 55.31347 | 11.81728 | 26114 ft | 421 kts | 232° |
| 2026-05-08 06:08 | 55.29567 | 11.77610 | 26534 ft | 424 kts | 232° |
| 2026-05-08 06:08 | 55.27775 | 11.73475 | 26935 ft | 427 kts | 232° |
| 2026-05-08 06:08 | 55.25972 | 11.69324 | 27338 ft | 430 kts | 232° |
| 2026-05-08 06:09 | 55.24189 | 11.65108 | 27734 ft | 432 kts | 234° |
| 2026-05-08 06:09 | 55.22491 | 11.60739 | 28134 ft | 435 kts | 236° |
| 2026-05-08 06:09 | 55.20853 | 11.56259 | 28546 ft | 437 kts | 237° |
| 2026-05-08 06:09 | 55.19243 | 11.51727 | 28942 ft | 440 kts | 237° |
| 2026-05-08 06:10 | 55.17623 | 11.47161 | 29310 ft | 443 kts | 237° |
| 2026-05-08 06:10 | 55.15980 | 11.42598 | 29665 ft | 445 kts | 236° |
| 2026-05-08 06:10 | 55.14306 | 11.38029 | 30002 ft | 448 kts | 236° |
| 2026-05-08 06:10 | 55.12604 | 11.33451 | 30344 ft | 450 kts | 235° |
| 2026-05-08 06:11 | 55.10882 | 11.28862 | 30642 ft | 453 kts | 235° |
| 2026-05-08 06:11 | 55.09147 | 11.24253 | 30930 ft | 455 kts | 235° |
| 2026-05-08 06:11 | 55.07401 | 11.19615 | 31214 ft | 457 kts | 235° |
| 2026-05-08 06:11 | 55.05650 | 11.14967 | 31491 ft | 460 kts | 235° |
| 2026-05-08 06:12 | 55.03889 | 11.10298 | 31836 ft | 460 kts | 235° |
| 2026-05-08 06:12 | 55.02135 | 11.05643 | 32250 ft | 459 kts | 235° |
| 2026-05-08 06:12 | 55.00389 | 11.01005 | 32686 ft | 457 kts | 235° |
| 2026-05-08 06:12 | 54.98639 | 10.96374 | 33133 ft | 456 kts | 235° |
| 2026-05-08 06:13 | 54.96897 | 10.91787 | 33578 ft | 454 kts | 234° |
| 2026-05-08 06:13 | 54.95155 | 10.87201 | 34023 ft | 453 kts | 234° |
| 2026-05-08 06:13 | 54.93418 | 10.82645 | 34419 ft | 452 kts | 234° |
| 2026-05-08 06:13 | 54.91666 | 10.78122 | 34775 ft | 450 kts | 234° |
| 2026-05-08 06:14 | 54.89926 | 10.73688 | 35138 ft | 449 kts | 234° |
| 2026-05-08 06:14 | 54.88136 | 10.69159 | 35494 ft | 448 kts | 234° |
| 2026-05-08 06:14 | 54.86369 | 10.64696 | 35844 ft | 447 kts | 234° |
| 2026-05-08 06:14 | 54.84631 | 10.60315 | 36193 ft | 446 kts | 234° |
| 2026-05-08 06:15 | 54.82877 | 10.55886 | 36533 ft | 445 kts | 234° |
| 2026-05-08 06:15 | 54.81108 | 10.51412 | 36857 ft | 444 kts | 234° |
| 2026-05-08 06:15 | 54.79402 | 10.47092 | 37164 ft | 442 kts | 234° |
| 2026-05-08 06:15 | 54.77667 | 10.42710 | 37467 ft | 439 kts | 234° |
| 2026-05-08 06:16 | 54.75940 | 10.38352 | 37733 ft | 439 kts | 234° |
| 2026-05-08 06:16 | 54.74209 | 10.33998 | 38004 ft | 439 kts | 235° |
| 2026-05-08 06:16 | 54.72476 | 10.29651 | 38194 ft | 439 kts | 234° |
| 2026-05-08 06:17 | 54.67902 | 10.15982 | 38226 ft | 437 kts | 240° |
| 2026-05-08 06:17 | 54.64944 | 10.06808 | 38225 ft | 437 kts | 240° |
| 2026-05-08 06:18 | 54.61976 | 9.97656 | 38224 ft | 437 kts | 240° |
| 2026-05-08 06:18 | 54.58998 | 9.88520 | 38217 ft | 437 kts | 240° |
| 2026-05-08 06:19 | 54.56018 | 9.79382 | 38223 ft | 437 kts | 240° |
| 2026-05-08 06:19 | 54.53034 | 9.70265 | 38227 ft | 437 kts | 240° |
| 2026-05-08 06:20 | 54.50041 | 9.61179 | 38236 ft | 436 kts | 240° |
| 2026-05-08 06:20 | 54.47046 | 9.52102 | 38235 ft | 436 kts | 240° |
| 2026-05-08 06:21 | 54.44046 | 9.43046 | 38237 ft | 436 kts | 239° |
| 2026-05-08 06:21 | 54.41037 | 9.34009 | 38225 ft | 436 kts | 239° |
| 2026-05-08 06:22 | 54.38019 | 9.24977 | 38212 ft | 436 kts | 239° |
| 2026-05-08 06:22 | 54.34999 | 9.15960 | 38222 ft | 437 kts | 239° |
| 2026-05-08 06:23 | 54.31967 | 9.06961 | 38223 ft | 436 kts | 239° |
| 2026-05-08 06:23 | 54.28929 | 8.97964 | 38221 ft | 436 kts | 239° |
| 2026-05-08 06:24 | 54.25890 | 8.89010 | 38227 ft | 436 kts | 239° |
| 2026-05-08 06:24 | 54.22864 | 8.80107 | 38226 ft | 436 kts | 239° |
| 2026-05-08 06:25 | 54.19823 | 8.71154 | 38219 ft | 436 kts | 239° |
| 2026-05-08 06:25 | 54.16763 | 8.62219 | 38215 ft | 435 kts | 239° |
| 2026-05-08 06:26 | 54.13695 | 8.53321 | 38221 ft | 434 kts | 239° |
| 2026-05-08 06:26 | 54.10628 | 8.44436 | 38227 ft | 434 kts | 239° |
| 2026-05-08 06:27 | 54.07562 | 8.35571 | 38224 ft | 434 kts | 239° |
| 2026-05-08 06:27 | 54.04488 | 8.26726 | 38223 ft | 434 kts | 239° |
| 2026-05-08 06:28 | 54.01408 | 8.17908 | 38212 ft | 434 kts | 239° |
| 2026-05-08 06:28 | 53.98326 | 8.09096 | 38213 ft | 434 kts | 239° |
| 2026-05-08 06:29 | 53.95231 | 8.00282 | 38200 ft | 433 kts | 239° |
| 2026-05-08 06:29 | 53.92153 | 7.91571 | 38208 ft | 433 kts | 239° |
| 2026-05-08 06:30 | 53.89051 | 7.82812 | 38216 ft | 433 kts | 239° |
| 2026-05-08 06:30 | 53.85952 | 7.74061 | 38205 ft | 432 kts | 238° |
| 2026-05-08 06:31 | 53.82849 | 7.65346 | 38202 ft | 432 kts | 238° |
| 2026-05-08 06:31 | 53.79737 | 7.56650 | 38201 ft | 432 kts | 238° |
| 2026-05-08 06:32 | 53.76619 | 7.47961 | 38193 ft | 432 kts | 238° |
| 2026-05-08 06:32 | 53.73494 | 7.39286 | 38189 ft | 432 kts | 238° |
| 2026-05-08 06:33 | 53.70368 | 7.30634 | 38189 ft | 432 kts | 238° |
| 2026-05-08 06:33 | 53.67232 | 7.21995 | 38204 ft | 432 kts | 238° |
| 2026-05-08 06:34 | 53.64090 | 7.13380 | 38204 ft | 431 kts | 238° |
| 2026-05-08 06:34 | 53.60969 | 7.04832 | 38198 ft | 431 kts | 238° |
| 2026-05-08 06:35 | 53.57827 | 6.96260 | 38194 ft | 430 kts | 238° |
| 2026-05-08 06:35 | 53.54600 | 6.87781 | 38187 ft | 431 kts | 236° |
| 2026-05-08 06:36 | 53.51118 | 6.79597 | 38182 ft | 430 kts | 234° |
| 2026-05-08 06:36 | 53.47559 | 6.71498 | 38202 ft | 431 kts | 234° |
| 2026-05-08 06:37 | 53.44029 | 6.63361 | 38200 ft | 431 kts | 234° |
| 2026-05-08 06:37 | 53.40534 | 6.55208 | 38193 ft | 430 kts | 234° |
| 2026-05-08 06:38 | 53.37045 | 6.47072 | 38191 ft | 430 kts | 234° |
| 2026-05-08 06:38 | 53.33539 | 6.38958 | 38189 ft | 430 kts | 234° |
| 2026-05-08 06:39 | 53.30028 | 6.30880 | 38188 ft | 430 kts | 234° |
| 2026-05-08 06:39 | 53.26511 | 6.22803 | 38184 ft | 430 kts | 234° |
| 2026-05-08 06:40 | 53.22987 | 6.14747 | 38185 ft | 429 kts | 234° |
| 2026-05-08 06:40 | 53.19492 | 6.06760 | 38188 ft | 429 kts | 234° |
| 2026-05-08 06:41 | 53.15962 | 5.98735 | 38183 ft | 429 kts | 234° |
| 2026-05-08 06:41 | 53.12430 | 5.90727 | 38179 ft | 429 kts | 234° |
| 2026-05-08 06:42 | 53.08896 | 5.82723 | 38166 ft | 429 kts | 234° |
| 2026-05-08 06:42 | 53.05352 | 5.74740 | 38170 ft | 429 kts | 234° |
| 2026-05-08 06:43 | 53.02384 | 5.68057 | 38175 ft | 429 kts | 234° |
| 2026-05-08 06:43 | 52.98838 | 5.60094 | 38172 ft | 429 kts | 234° |
| 2026-05-08 06:44 | 52.95279 | 5.52145 | 38179 ft | 429 kts | 234° |
| 2026-05-08 06:44 | 52.91737 | 5.44274 | 38175 ft | 429 kts | 233° |
| 2026-05-08 06:45 | 52.88167 | 5.36363 | 38165 ft | 429 kts | 233° |
| 2026-05-08 06:45 | 52.84602 | 5.28459 | 38159 ft | 428 kts | 233° |
| 2026-05-08 06:46 | 52.81028 | 5.20578 | 38157 ft | 429 kts | 233° |
| 2026-05-08 06:46 | 52.77445 | 5.12694 | 38159 ft | 429 kts | 233° |
| 2026-05-08 06:47 | 52.73861 | 5.04829 | 38154 ft | 429 kts | 233° |
| 2026-05-08 06:47 | 52.70265 | 4.96958 | 38165 ft | 429 kts | 233° |
| 2026-05-08 06:48 | 52.66664 | 4.89121 | 38160 ft | 429 kts | 233° |
| 2026-05-08 06:48 | 52.63058 | 4.81288 | 38148 ft | 429 kts | 233° |
| 2026-05-08 06:49 | 52.59448 | 4.73461 | 38156 ft | 430 kts | 233° |
| 2026-05-08 06:49 | 52.55824 | 4.65634 | 38164 ft | 430 kts | 233° |
| 2026-05-08 06:50 | 52.52187 | 4.57823 | 38158 ft | 430 kts | 233° |
| 2026-05-08 06:50 | 52.48552 | 4.50031 | 38158 ft | 430 kts | 233° |
| 2026-05-08 06:51 | 52.44921 | 4.42238 | 38155 ft | 430 kts | 233° |
| 2026-05-08 06:51 | 52.41275 | 4.34466 | 38153 ft | 430 kts | 233° |
| 2026-05-08 06:52 | 52.37624 | 4.26714 | 38157 ft | 430 kts | 233° |
| 2026-05-08 06:52 | 52.33964 | 4.18960 | 38158 ft | 430 kts | 233° |
| 2026-05-08 06:53 | 52.30311 | 4.11236 | 38155 ft | 430 kts | 233° |
| 2026-05-08 06:53 | 52.26664 | 4.03552 | 38157 ft | 430 kts | 233° |
| 2026-05-08 06:54 | 52.22994 | 3.95847 | 38154 ft | 430 kts | 233° |
| 2026-05-08 06:54 | 52.19312 | 3.88130 | 38152 ft | 430 kts | 233° |
| 2026-05-08 06:55 | 52.15630 | 3.80446 | 38152 ft | 431 kts | 232° |
| 2026-05-08 06:55 | 52.11943 | 3.72760 | 38143 ft | 430 kts | 233° |
| 2026-05-08 06:56 | 52.08248 | 3.65094 | 38146 ft | 429 kts | 232° |
| 2026-05-08 06:56 | 52.04557 | 3.57461 | 38143 ft | 429 kts | 232° |
| 2026-05-08 06:57 | 52.00890 | 3.49897 | 38133 ft | 429 kts | 232° |
| 2026-05-08 06:57 | 51.97192 | 3.42284 | 38123 ft | 429 kts | 232° |
| 2026-05-08 06:58 | 51.93491 | 3.34697 | 38131 ft | 430 kts | 232° |
| 2026-05-08 06:58 | 51.89774 | 3.27104 | 38127 ft | 430 kts | 232° |
| 2026-05-08 06:59 | 51.86301 | 3.19264 | 38126 ft | 429 kts | 243° |
| 2026-05-08 06:59 | 51.84473 | 3.10137 | 38124 ft | 428 kts | 262° |
| 2026-05-08 07:00 | 51.83862 | 3.00543 | 38123 ft | 429 kts | 263° |
| 2026-05-08 07:00 | 51.83228 | 2.90967 | 38133 ft | 429 kts | 263° |
| 2026-05-08 07:01 | 51.82577 | 2.81382 | 38131 ft | 429 kts | 263° |
| 2026-05-08 07:01 | 51.81929 | 2.71789 | 38127 ft | 429 kts | 263° |
| 2026-05-08 07:02 | 51.81603 | 2.66980 | 37923 ft | 430 kts | 263° |
| 2026-05-08 07:02 | 51.81277 | 2.62186 | 37650 ft | 429 kts | 263° |
| 2026-05-08 07:02 | 51.80949 | 2.57386 | 37381 ft | 429 kts | 263° |
| 2026-05-08 07:02 | 51.80621 | 2.52600 | 37118 ft | 429 kts | 263° |
| 2026-05-08 07:03 | 51.80287 | 2.47819 | 36824 ft | 428 kts | 262° |
| 2026-05-08 07:03 | 51.79948 | 2.43026 | 36114 ft | 432 kts | 262° |
| 2026-05-08 07:03 | 51.79599 | 2.38185 | 35329 ft | 437 kts | 262° |
| 2026-05-08 07:03 | 51.79246 | 2.33291 | 34523 ft | 440 kts | 262° |
| 2026-05-08 07:04 | 51.78891 | 2.28354 | 33572 ft | 445 kts | 262° |
| 2026-05-08 07:04 | 51.78533 | 2.23374 | 32673 ft | 446 kts | 262° |
| 2026-05-08 07:04 | 51.78185 | 2.18365 | 31677 ft | 451 kts | 263° |
| 2026-05-08 07:04 | 51.77879 | 2.13372 | 31257 ft | 443 kts | 263° |
| 2026-05-08 07:05 | 51.77601 | 2.08452 | 30678 ft | 438 kts | 263° |
| 2026-05-08 07:05 | 51.77335 | 2.03579 | 30098 ft | 434 kts | 263° |
| 2026-05-08 07:05 | 51.77072 | 1.98750 | 29482 ft | 428 kts | 263° |
| 2026-05-08 07:05 | 51.76804 | 1.94000 | 28928 ft | 422 kts | 263° |
| 2026-05-08 07:06 | 51.76525 | 1.89318 | 28374 ft | 416 kts | 263° |
| 2026-05-08 07:06 | 51.76241 | 1.84697 | 27834 ft | 411 kts | 263° |
| 2026-05-08 07:06 | 51.75955 | 1.80137 | 27289 ft | 406 kts | 263° |
| 2026-05-08 07:06 | 51.75671 | 1.75627 | 26761 ft | 402 kts | 263° |
| 2026-05-08 07:07 | 51.75391 | 1.71166 | 26250 ft | 398 kts | 263° |
| 2026-05-08 07:07 | 51.75117 | 1.66800 | 25749 ft | 394 kts | 263° |
| 2026-05-08 07:07 | 51.74842 | 1.62429 | 25258 ft | 390 kts | 263° |
| 2026-05-08 07:07 | 51.74566 | 1.58094 | 24711 ft | 389 kts | 263° |
| 2026-05-08 07:08 | 51.74289 | 1.53748 | 24114 ft | 389 kts | 263° |
| 2026-05-08 07:08 | 51.74011 | 1.49407 | 23501 ft | 388 kts | 263° |
| 2026-05-08 07:08 | 51.73734 | 1.45096 | 22893 ft | 386 kts | 263° |
| 2026-05-08 07:08 | 51.73455 | 1.40807 | 22308 ft | 384 kts | 262° |
| 2026-05-08 07:09 | 51.73178 | 1.36539 | 21742 ft | 382 kts | 262° |
| 2026-05-08 07:09 | 51.72903 | 1.32292 | 21165 ft | 380 kts | 262° |
| 2026-05-08 07:09 | 51.72626 | 1.28073 | 20600 ft | 377 kts | 262° |
| 2026-05-08 07:09 | 51.72348 | 1.23876 | 20035 ft | 376 kts | 262° |
| 2026-05-08 07:10 | 51.72071 | 1.19688 | 19475 ft | 374 kts | 262° |
| 2026-05-08 07:10 | 51.71794 | 1.15531 | 18915 ft | 372 kts | 262° |
| 2026-05-08 07:10 | 51.71515 | 1.11397 | 18355 ft | 370 kts | 262° |
| 2026-05-08 07:10 | 51.71238 | 1.07292 | 17757 ft | 366 kts | 262° |
| 2026-05-08 07:11 | 51.70962 | 1.03244 | 17206 ft | 361 kts | 262° |
| 2026-05-08 07:11 | 51.70686 | 0.99252 | 16670 ft | 356 kts | 262° |
| 2026-05-08 07:11 | 51.70409 | 0.95304 | 16140 ft | 352 kts | 262° |
| 2026-05-08 07:11 | 51.70136 | 0.91394 | 15592 ft | 350 kts | 262° |
| 2026-05-08 07:12 | 51.69866 | 0.87517 | 15049 ft | 347 kts | 262° |
| 2026-05-08 07:12 | 51.69598 | 0.83669 | 14507 ft | 344 kts | 263° |
| 2026-05-08 07:12 | 51.69331 | 0.79846 | 13978 ft | 342 kts | 263° |
| 2026-05-08 07:12 | 51.69063 | 0.76050 | 13401 ft | 339 kts | 263° |
| 2026-05-08 07:13 | 51.68797 | 0.72298 | 12873 ft | 335 kts | 263° |
| 2026-05-08 07:13 | 51.68534 | 0.68585 | 12350 ft | 331 kts | 263° |
| 2026-05-08 07:13 | 51.68277 | 0.64926 | 11839 ft | 327 kts | 263° |
| 2026-05-08 07:13 | 51.68131 | 0.62861 | 11549 ft | 325 kts | 263° |
| 2026-05-08 07:14 | 51.67906 | 0.59728 | 11206 ft | 319 kts | 263° |
| 2026-05-08 07:14 | 51.67654 | 0.56251 | 11080 ft | 308 kts | 263° |
| 2026-05-08 07:14 | 51.67401 | 0.52891 | 10945 ft | 296 kts | 263° |
| 2026-05-08 07:14 | 51.67163 | 0.49661 | 10802 ft | 285 kts | 263° |
| 2026-05-08 07:15 | 51.66936 | 0.46518 | 10559 ft | 280 kts | 263° |
| 2026-05-08 07:15 | 51.66711 | 0.43418 | 10283 ft | 278 kts | 263° |
| 2026-05-08 07:15 | 51.66485 | 0.40334 | 9945 ft | 277 kts | 263° |
| 2026-05-08 07:15 | 51.66259 | 0.37267 | 9575 ft | 275 kts | 263° |
| 2026-05-08 07:16 | 51.66028 | 0.34215 | 9231 ft | 274 kts | 263° |
| 2026-05-08 07:16 | 51.65799 | 0.31174 | 8891 ft | 273 kts | 263° |
| 2026-05-08 07:16 | 51.65577 | 0.28140 | 8551 ft | 273 kts | 263° |
| 2026-05-08 07:16 | 51.65349 | 0.25103 | 8212 ft | 273 kts | 262° |
| 2026-05-08 07:17 | 51.65117 | 0.22078 | 7881 ft | 272 kts | 262° |
| 2026-05-08 07:17 | 51.64887 | 0.19062 | 7539 ft | 272 kts | 262° |
| 2026-05-08 07:17 | 51.64658 | 0.16036 | 7206 ft | 271 kts | 261° |
| 2026-05-08 07:17 | 51.64444 | 0.13026 | 7101 ft | 271 kts | 263° |
| 2026-05-08 07:18 | 51.64272 | 0.10025 | 7103 ft | 273 kts | 264° |
| 2026-05-08 07:18 | 51.64114 | 0.06946 | 7110 ft | 273 kts | 264° |
| 2026-05-08 07:18 | 51.63960 | 0.03910 | 7107 ft | 274 kts | 264° |
| 2026-05-08 07:18 | 51.63805 | 0.00891 | 7108 ft | 274 kts | 264° |
| 2026-05-08 07:19 | 51.63642 | -0.02156 | 7109 ft | 273 kts | 263° |
| 2026-05-08 07:19 | 51.63475 | -0.05221 | 7106 ft | 274 kts | 263° |
| 2026-05-08 07:19 | 51.63304 | -0.08325 | 7107 ft | 274 kts | 261° |
| 2026-05-08 07:19 | 51.63126 | -0.11373 | 7108 ft | 276 kts | 263° |
| 2026-05-08 07:20 | 51.62954 | -0.14411 | 7107 ft | 274 kts | 263° |
| 2026-05-08 07:20 | 51.62780 | -0.17511 | 7107 ft | 278 kts | 262° |
| 2026-05-08 07:20 | 51.62591 | -0.20590 | 7114 ft | 276 kts | 263° |
| 2026-05-08 07:20 | 51.62416 | -0.23609 | 7110 ft | 274 kts | 263° |
| 2026-05-08 07:21 | 51.62240 | -0.26650 | 7119 ft | 274 kts | 263° |
| 2026-05-08 07:21 | 51.62063 | -0.29758 | 7119 ft | 276 kts | 263° |
| 2026-05-08 07:21 | 51.61878 | -0.32802 | 7086 ft | 278 kts | 261° |
| 2026-05-08 07:21 | 51.61693 | -0.35884 | 7087 ft | 276 kts | 263° |
| 2026-05-08 07:22 | 51.61516 | -0.38945 | 7093 ft | 274 kts | 263° |
| 2026-05-08 07:22 | 51.61328 | -0.41991 | 7091 ft | 273 kts | 263° |
| 2026-05-08 07:22 | 51.61146 | -0.45033 | 7087 ft | 274 kts | 263° |
| 2026-05-08 07:22 | 51.60971 | -0.48093 | 7092 ft | 274 kts | 263° |
| 2026-05-08 07:23 | 51.60795 | -0.51148 | 7082 ft | 275 kts | 263° |
| 2026-05-08 07:23 | 51.60609 | -0.54219 | 7086 ft | 276 kts | 262° |
| 2026-05-08 07:23 | 51.60422 | -0.57273 | 7083 ft | 274 kts | 262° |
| 2026-05-08 07:23 | 51.60242 | -0.60272 | 7080 ft | 262 kts | 263° |
| 2026-05-08 07:24 | 51.60076 | -0.63119 | 7091 ft | 249 kts | 262° |
| 2026-05-08 07:24 | 51.59914 | -0.65820 | 7024 ft | 239 kts | 262° |
| 2026-05-08 07:24 | 51.59747 | -0.68506 | 6563 ft | 245 kts | 262° |
| 2026-05-08 07:24 | 51.59574 | -0.71233 | 6148 ft | 245 kts | 262° |
| 2026-05-08 07:25 | 51.59406 | -0.73931 | 5793 ft | 239 kts | 262° |
| 2026-05-08 07:25 | 51.59140 | -0.76517 | 5475 ft | 228 kts | 245° |
| 2026-05-08 07:25 | 51.56951 | -0.79530 | 4940 ft | 210 kts | 188° |
| 2026-05-08 07:26 | 51.55993 | -0.79604 | 4759 ft | 208 kts | 176° |
| 2026-05-08 07:26 | 51.54553 | -0.79509 | 4496 ft | 207 kts | 177° |
| 2026-05-08 07:26 | 51.53116 | -0.79430 | 4241 ft | 207 kts | 177° |
| 2026-05-08 07:26 | 51.51678 | -0.79353 | 3975 ft | 207 kts | 178° |
| 2026-05-08 07:27 | 51.50242 | -0.79275 | 3736 ft | 203 kts | 177° |
| 2026-05-08 07:27 | 51.48848 | -0.79084 | 3480 ft | 201 kts | 161° |
| 2026-05-08 07:27 | 51.47813 | -0.77741 | 3261 ft | 195 kts | 117° |
| 2026-05-08 07:27 | 51.47636 | -0.75603 | 3040 ft | 195 kts | 84° |
| 2026-05-08 07:28 | 51.47788 | -0.73456 | 2855 ft | 191 kts | 90° |
| 2026-05-08 07:28 | 51.47724 | -0.71347 | 2741 ft | 188 kts | 97° |
| 2026-05-08 07:28 | 51.47677 | -0.69357 | 2734 ft | 170 kts | 94° |
| 2026-05-08 07:28 | 51.47665 | -0.67452 | 2467 ft | 171 kts | 92° |
| 2026-05-08 07:29 | 51.47671 | -0.65585 | 2234 ft | 167 kts | 93° |
| 2026-05-08 07:29 | 51.47674 | -0.63766 | 2017 ft | 159 kts | 95° |
| 2026-05-08 07:29 | 51.47683 | -0.62045 | 1800 ft | 148 kts | 93° |
| 2026-05-08 07:29 | 51.47693 | -0.60448 | 1625 ft | 142 kts | 93° |
| 2026-05-08 07:30 | 51.47703 | -0.58882 | 1422 ft | 137 kts | 94° |
| 2026-05-08 07:30 | 51.47712 | -0.57411 | 1241 ft | 130 kts | 92° |
| 2026-05-08 07:30 | 51.47718 | -0.55977 | 1054 ft | 127 kts | 94° |
| 2026-05-08 07:30 | 51.47722 | -0.54586 | 872 ft | 124 kts | 90° |
| 2026-05-08 07:31 | 51.47718 | -0.53197 | 733 ft | 124 kts | 91° |
| 2026-05-08 07:31 | 51.47727 | -0.51822 | 565 ft | 124 kts | 87° |
| 2026-05-08 07:31 | 51.47736 | -0.50476 | 412 ft | 122 kts | 89° |
| 2026-05-08 07:31 | 51.47744 | -0.49096 | 195 ft | 121 kts | 89° |
| 2026-05-08 07:32 | 51.47746 | -0.47776 | 87 ft | 109 kts | 89° |
| 2026-05-08 07:32 | 51.47758 | -0.46656 | 89 ft | 96 kts | 90° |
| 2026-05-08 07:32 | 51.47760 | -0.45807 | 85 ft | 55 kts | 90° |
| 2026-05-08 07:32 | 51.47762 | -0.45368 | 86 ft | 25 kts | 89° |
| 2026-05-08 07:33 | 51.47734 | -0.45192 | 88 ft | 16 kts | 142° |
| 2026-05-08 07:33 | 51.47629 | -0.45175 | 89 ft | 10 kts | 180° |
| 2026-05-08 07:33 | 51.47597 | -0.45265 | 86 ft | 12 kts | 269° |
| 2026-05-08 07:33 | 51.47597 | -0.45417 | 88 ft | 15 kts | 270° |
| 2026-05-08 07:34 | 51.47596 | -0.45601 | 88 ft | 18 kts | 270° |
| 2026-05-08 07:34 | 51.47596 | -0.45814 | 86 ft | 20 kts | 269° |
| 2026-05-08 07:34 | 51.47595 | -0.46056 | 88 ft | 23 kts | 270° |
| 2026-05-08 07:34 | 51.47593 | -0.46327 | 86 ft | 25 kts | 269° |
| 2026-05-08 07:35 | 51.47592 | -0.46624 | 86 ft | 28 kts | 270° |
| 2026-05-08 07:35 | 51.47588 | -0.46838 | 86 ft | 16 kts | 259° |
| 2026-05-08 07:35 | 51.47583 | -0.47032 | 91 ft | 19 kts | 270° |
| 2026-05-08 07:35 | 51.47582 | -0.47257 | 88 ft | 22 kts | 270° |
| 2026-05-08 07:36 | 51.47581 | -0.47512 | 88 ft | 24 kts | 270° |
| 2026-05-08 07:36 | 51.47580 | -0.47797 | 86 ft | 27 kts | 270° |
| 2026-05-08 07:36 | 51.47579 | -0.48109 | 88 ft | 29 kts | 269° |
| 2026-05-08 07:36 | 51.47578 | -0.48405 | 89 ft | 11 kts | 270° |
| 2026-05-08 07:37 | 51.47536 | -0.48475 | 90 ft | 11 kts | 185° |
| 2026-05-08 07:37 | 51.47447 | -0.48475 | 89 ft | 14 kts | 180° |
| 2026-05-08 07:37 | 51.47338 | -0.48474 | 86 ft | 17 kts | 179° |
| 2026-05-08 07:37 | 51.47208 | -0.48473 | 86 ft | 17 kts | 180° |
| 2026-05-08 07:38 | 51.47120 | -0.48472 | 86 ft | 13 kts | 180° |
| 2026-05-08 07:38 | 51.47066 | -0.48471 | 88 ft | 3 kts | 180° |
| 2026-05-08 07:38 | 51.47051 | -0.48478 | 86 ft | 1 kts | 227° |
| 2026-05-08 07:38 | 51.47049 | -0.48508 | 88 ft | 4 kts | 267° |
| 2026-05-08 07:39 | 51.47049 | -0.48556 | 86 ft | 0 kts | 269° |
| 2026-05-08 07:39 | 51.47049 | -0.48568 | 86 ft | 1 kts | 270° |
| 2026-05-08 07:39 | 51.47049 | -0.48577 | 86 ft | 1 kts | 270° |
| 2026-05-08 07:39 | 51.47049 | -0.48586 | 86 ft | 0 kts | 270° |